KLAA/LAA METAR and TAF weather

Enter ICAO airport designator
Station Type Date Time Source
KLAA METAR 2020/11/28 19:53 UTC NOAA

KLAA 281953Z AUTO 20010KT 10SM FEW035 09/00 A3012 RMK AO2 SLP206 T00940000


Station Type Date Time Source
KLAA Decoded METAR 2020/11/28 19:53 UTC NOAA

LAMAR MUNICIPAL AIRPORT, CO, United States (KLAA) 38-04N 102-41W 1119M
Nov 28, 2020 - 02:53 PM EST / 2020.11.28 1953 UTC
Wind: from the SSW (200 degrees) at 12 MPH (10 KT):0
Visibility: 10 mile(s):0
Sky conditions: mostly clear
Temperature: 48.9 F (9.4 C)
Dew Point: 32.0 F (0.0 C)
Relative Humidity: 51%
Pressure (altimeter): 30.12 in. Hg (1019 hPa)
ob: KLAA 281953Z AUTO 20010KT 10SM FEW035 09/00 A3012 RMK AO2 SLP206 T00940000
cycle: 20

Station Type Date Time Source
KLAA TAF UTC NOAA

Error!

Example: see airport list